Time;durP1;ratioP1;P1;durP2;ratioP2;P2;SDS_P1;SDS_P2;PMS_P1;PMS_P2;Temp;Humidity;BMP_temperature;BMP_pressure;BME280_temperature;BME280_humidity;BME280_pressure;Samples;Min_cycle;Max_cycle;Signal;HPM_P1;HPM_P2
2021/09/20 00:00:46;;;;;;;151.80;138.77;;;15.40;99.90;;;;;;5044848;28;20477;-83
2021/09/20 00:03:12;;;;;;;97.60;82.53;;;15.50;99.90;;;;;;5045919;28;20189;-84
2021/09/20 00:08:08;;;;;;;102.33;74.17;;;15.50;99.90;;;;;;5478575;22;20200;-83
2021/09/20 00:10:34;;;;;;;97.87;79.53;;;15.40;99.90;;;;;;5271364;22;20502;-83
2021/09/20 00:13:00;;;;;;;94.47;73.37;;;15.30;99.90;;;;;;5043897;28;20239;-86
2021/09/20 00:15:26;;;;;;;129.00;116.47;;;15.30;99.90;;;;;;5043130;28;20193;-86
2021/09/20 00:17:51;;;;;;;119.77;106.67;;;15.20;99.90;;;;;;5060750;28;20194;-86
2021/09/20 00:25:56;;;;;;;116.83;104.67;;;15.20;99.90;;;;;;5061498;23;20990;-84
2021/09/20 00:32:43;;;;;;;;;;;;;;;;;;;;;
2021/09/20 00:38:15;;;;;;;129.73;117.53;;;15.10;99.90;;;;;;5114490;22;20560;-86
2021/09/20 00:40:41;;;;;;;160.90;147.13;;;15.20;99.90;;;;;;5063189;28;20891;-86
2021/09/20 00:43:06;;;;;;;196.63;181.73;;;14.90;99.90;;;;;;5062800;28;20244;-86
2021/09/20 00:45:32;;;;;;;201.80;186.83;;;14.80;99.90;;;;;;5045825;28;20211;-86
2021/09/20 00:47:58;;;;;;;184.70;170.57;;;14.80;99.90;;;;;;5063971;28;20201;-86
2021/09/20 00:50:23;;;;;;;207.07;192.53;;;14.70;99.90;;;;;;5062338;28;20237;-86
2021/09/20 00:52:49;;;;;;;209.30;194.47;;;14.80;99.90;;;;;;5063763;28;20223;-86
2021/09/20 00:55:16;;;;;;;198.53;183.93;;;14.80;99.90;;;;;;5064101;28;20218;-84
2021/09/20 00:57:44;;;;;;;182.63;168.83;;;14.70;99.90;;;;;;5064088;28;20180;-83
2021/09/20 01:00:10;;;;;;;188.50;174.40;;;14.70;99.90;;;;;;5046076;28;20424;-83
2021/09/20 01:02:36;;;;;;;182.40;168.40;;;14.80;99.90;;;;;;5046236;28;20412;-84
2021/09/20 01:05:03;;;;;;;184.70;170.60;;;14.70;99.90;;;;;;5063920;28;20407;-84
2021/09/20 01:07:29;;;;;;;188.70;174.60;;;14.70;99.90;;;;;;5063041;28;20428;-83
2021/09/20 01:09:55;;;;;;;193.53;179.23;;;14.70;99.90;;;;;;5391413;23;20549;-83
2021/09/20 01:14:46;;;;;;;180.50;166.43;;;14.80;99.90;;;;;;5109687;22;20239;-86
2021/09/20 01:17:12;;;;;;;156.00;142.73;;;14.90;99.90;;;;;;5053568;28;20184;-86
2021/09/20 01:19:37;;;;;;;179.33;165.57;;;14.70;99.90;;;;;;5063829;28;20165;-86
2021/09/20 01:22:12;;;;;;;196.20;181.27;;;14.80;99.90;;;;;;5063362;28;20168;-86
2021/09/20 01:24:38;;;;;;;189.90;175.40;;;14.60;99.90;;;;;;5062996;28;20152;-86
2021/09/20 01:27:04;;;;;;;167.73;153.87;;;14.60;99.90;;;;;;5062400;28;20422;-86
2021/09/20 01:29:31;;;;;;;186.73;172.73;;;14.60;99.90;;;;;;5063490;28;20947;-86
2021/09/20 01:31:58;;;;;;;200.77;186.17;;;14.60;99.90;;;;;;5043836;28;20415;-86
2021/09/20 01:34:28;;;;;;;172.40;158.70;;;14.70;99.90;;;;;;5063352;28;20412;-86
2021/09/20 01:36:54;;;;;;;184.13;170.13;;;14.70;99.90;;;;;;5043905;28;20530;-86
2021/09/20 01:39:23;;;;;;;160.00;146.37;;;14.60;99.90;;;;;;5062690;28;20448;-86
2021/09/20 01:41:50;;;;;;;219.80;204.17;;;14.60;99.90;;;;;;5043926;28;20423;-86
2021/09/20 01:44:16;;;;;;;163.70;150.23;;;14.60;99.90;;;;;;5063439;28;20450;-86
2021/09/20 01:46:53;;;;;;;181.87;167.90;;;14.40;99.90;;;;;;5045292;28;20455;-86
2021/09/20 01:49:21;;;;;;;190.40;176.23;;;14.40;99.90;;;;;;5062804;28;20414;-86
2021/09/20 01:51:48;;;;;;;211.83;196.80;;;14.40;99.90;;;;;;5044948;28;20469;-86
2021/09/20 01:54:14;;;;;;;189.73;175.40;;;14.30;99.90;;;;;;5062296;28;20411;-86
2021/09/20 01:56:41;;;;;;;194.33;179.57;;;14.30;99.90;;;;;;5062294;28;20430;-86
2021/09/20 01:59:07;;;;;;;175.67;161.97;;;14.30;99.90;;;;;;5061685;28;20461;-86
2021/09/20 02:01:34;;;;;;;187.13;172.37;;;14.40;99.90;;;;;;5044652;28;20820;-84
2021/09/20 02:03:59;;;;;;;186.03;171.67;;;14.40;99.90;;;;;;5062067;28;20403;-84
2021/09/20 02:06:25;;;;;;;183.93;169.97;;;14.30;99.90;;;;;;5044178;28;20434;-84
2021/09/20 02:08:52;;;;;;;173.67;159.43;;;14.20;99.90;;;;;;5062631;28;20165;-84
2021/09/20 02:11:20;;;;;;;163.07;149.80;;;14.20;99.90;;;;;;5061802;28;20400;-83
2021/09/20 02:13:47;;;;;;;172.37;158.73;;;14.30;99.90;;;;;;5062023;28;20455;-84
2021/09/20 02:16:13;;;;;;;156.50;143.57;;;14.20;99.90;;;;;;5062972;28;20395;-83
2021/09/20 02:18:39;;;;;;;160.17;147.00;;;14.10;99.90;;;;;;5060996;28;20399;-84
2021/09/20 02:21:10;;;;;;;135.03;122.13;;;14.10;99.90;;;;;;5062417;28;20172;-84
2021/09/20 02:23:37;;;;;;;154.30;141.10;;;14.10;99.90;;;;;;5062673;28;20388;-84
2021/09/20 02:26:04;;;;;;;167.47;154.10;;;14.10;99.90;;;;;;5062244;28;20435;-84
2021/09/20 02:28:30;;;;;;;138.90;126.47;;;14.10;99.90;;;;;;5062013;28;20453;-84
2021/09/20 02:30:56;;;;;;;136.20;123.30;;;14.10;99.90;;;;;;5062358;28;20410;-84
2021/09/20 02:33:24;;;;;;;113.23;101.43;;;14.00;99.90;;;;;;5061024;28;20780;-83
2021/09/20 02:35:49;;;;;;;142.87;129.63;;;14.00;99.90;;;;;;5043732;28;20993;-83
2021/09/20 02:38:15;;;;;;;119.97;108.03;;;14.00;99.90;;;;;;5062284;28;20477;-83
2021/09/20 02:40:41;;;;;;;153.80;140.67;;;14.10;99.90;;;;;;5044069;28;20166;-84
2021/09/20 02:43:07;;;;;;;144.40;131.67;;;14.10;99.90;;;;;;5044405;28;20419;-84
2021/09/20 02:45:37;;;;;;;115.03;103.30;;;13.90;99.90;;;;;;5061902;28;20410;-84
2021/09/20 02:48:03;;;;;;;115.50;103.80;;;13.80;99.90;;;;;;5061774;28;20423;-83
2021/09/20 02:50:28;;;;;;;102.97;91.73;;;13.80;99.90;;;;;;5061357;28;20439;-84
2021/09/20 02:52:54;;;;;;;123.20;110.93;;;13.90;99.90;;;;;;5043185;28;20203;-84
2021/09/20 02:55:20;;;;;;;142.13;129.53;;;14.00;99.90;;;;;;5061772;28;20192;-84
2021/09/20 02:57:45;;;;;;;126.30;113.50;;;13.90;99.90;;;;;;5043783;28;20275;-83
2021/09/20 03:00:13;;;;;;;105.70;94.00;;;13.80;99.90;;;;;;5061784;28;20214;-86
2021/09/20 03:02:39;;;;;;;104.73;82.10;;;13.80;99.90;;;;;;5044064;28;20194;-86
2021/09/20 03:05:06;;;;;;;125.33;113.23;;;13.90;99.90;;;;;;5060097;28;20433;-86
2021/09/20 03:07:31;;;;;;;114.70;102.87;;;13.80;99.90;;;;;;5042753;28;20430;-86
2021/09/20 03:10:01;;;;;;;97.10;79.83;;;13.80;99.90;;;;;;5043417;28;20407;-86
2021/09/20 03:12:26;;;;;;;108.73;97.33;;;13.90;99.90;;;;;;5063038;28;20275;-86
2021/09/20 03:14:52;;;;;;;139.37;126.70;;;13.90;99.90;;;;;;5065418;28;20465;-86
2021/09/20 03:17:17;;;;;;;112.00;100.43;;;13.90;99.90;;;;;;5047472;28;20188;-86
2021/09/20 03:19:45;;;;;;;105.13;88.90;;;13.90;99.90;;;;;;5046769;28;20214;-86
2021/09/20 03:22:10;;;;;;;98.43;75.73;;;13.80;99.90;;;;;;5066049;28;20173;-86
2021/09/20 03:24:36;;;;;;;106.80;95.43;;;14.00;99.90;;;;;;5065249;28;20841;-86
2021/09/20 03:27:02;;;;;;;112.80;101.27;;;14.00;99.90;;;;;;5065748;28;20197;-85
2021/09/20 03:29:27;;;;;;;124.73;112.77;;;14.00;99.90;;;;;;5065420;28;20176;-83
2021/09/20 03:31:53;;;;;;;109.93;98.03;;;14.00;99.90;;;;;;5065131;28;20596;-83
2021/09/20 03:34:19;;;;;;;100.43;87.77;;;14.10;99.90;;;;;;5064133;28;20172;-83
2021/09/20 03:36:44;;;;;;;116.93;105.10;;;14.20;99.90;;;;;;5064726;28;20238;-83
2021/09/20 03:39:11;;;;;;;167.77;154.10;;;14.30;99.90;;;;;;5065044;28;20164;-83
2021/09/20 03:41:37;;;;;;;191.80;177.50;;;14.40;99.90;;;;;;5047043;28;20709;-84
2021/09/20 03:44:03;;;;;;;193.53;178.57;;;14.40;99.90;;;;;;5047061;28;20407;-84
2021/09/20 03:46:28;;;;;;;156.10;142.90;;;14.20;99.90;;;;;;5065231;28;20203;-83
2021/09/20 03:48:54;;;;;;;134.73;122.33;;;14.20;99.90;;;;;;5064874;28;20837;-83
2021/09/20 03:51:20;;;;;;;166.47;152.97;;;14.30;99.90;;;;;;5064875;28;20175;-83
2021/09/20 03:53:45;;;;;;;188.37;174.37;;;14.20;99.90;;;;;;5046325;28;20196;-84
2021/09/20 03:56:11;;;;;;;169.63;155.60;;;14.00;99.90;;;;;;5065453;28;20164;-84
2021/09/20 03:58:37;;;;;;;159.53;146.23;;;13.90;99.90;;;;;;5064511;28;20208;-84
2021/09/20 04:01:04;;;;;;;131.80;119.53;;;13.70;99.90;;;;;;5047964;28;20259;-83
2021/09/20 04:03:30;;;;;;;123.00;110.97;;;13.60;99.90;;;;;;5046882;28;20411;-83
2021/09/20 04:05:56;;;;;;;111.70;100.30;;;13.60;99.90;;;;;;5047030;28;20417;-83
2021/09/20 04:08:27;;;;;;;148.87;135.90;;;13.70;99.90;;;;;;5048249;28;20434;-84
2021/09/20 04:10:54;;;;;;;116.40;104.10;;;13.40;99.90;;;;;;5065388;28;20160;-84
2021/09/20 04:13:20;;;;;;;102.60;91.33;;;13.40;99.90;;;;;;5065238;28;20961;-84
2021/09/20 04:15:46;;;;;;;110.50;97.07;;;13.40;99.90;;;;;;5046688;28;20411;-83
2021/09/20 04:18:11;;;;;;;100.97;81.80;;;13.30;99.90;;;;;;5064611;28;20928;-83
2021/09/20 04:20:37;;;;;;;103.20;90.33;;;13.30;99.90;;;;;;5065510;28;20410;-84
2021/09/20 04:23:03;;;;;;;101.30;88.97;;;13.10;99.90;;;;;;5047240;28;20181;-84
2021/09/20 04:25:28;;;;;;;101.53;80.57;;;12.90;99.90;;;;;;5065153;28;20165;-84
2021/09/20 04:27:54;;;;;;;97.20;72.80;;;12.90;99.90;;;;;;5065336;28;20192;-83
2021/09/20 04:30:20;;;;;;;112.50;83.60;;;12.90;99.90;;;;;;5046731;28;20271;-84
2021/09/20 04:32:45;;;;;;;99.63;71.77;;;13.00;99.90;;;;;;5063990;28;20470;-83
2021/09/20 04:35:11;;;;;;;105.20;84.13;;;13.10;99.90;;;;;;5064548;28;20164;-84
2021/09/20 04:37:37;;;;;;;97.40;78.23;;;13.30;99.90;;;;;;5046256;28;20679;-84
2021/09/20 04:40:05;;;;;;;102.20;76.10;;;13.40;99.90;;;;;;5046011;28;20168;-83
2021/09/20 04:42:30;;;;;;;96.70;77.87;;;13.40;99.90;;;;;;5135261;22;20411;-83
2021/09/20 04:44:56;;;;;;;127.00;114.10;;;13.60;99.90;;;;;;5410905;22;20468;-83
2021/09/20 04:47:22;;;;;;;137.43;124.17;;;13.60;99.90;;;;;;5062448;28;20204;-83
2021/09/20 04:49:47;;;;;;;138.03;125.57;;;13.60;99.90;;;;;;5046030;28;20629;-83
2021/09/20 04:52:13;;;;;;;131.30;118.73;;;13.50;99.90;;;;;;5063910;28;20188;-83
2021/09/20 04:54:39;;;;;;;129.23;116.73;;;13.50;99.90;;;;;;5064296;28;20168;-83
2021/09/20 04:57:05;;;;;;;100.80;87.17;;;13.40;99.90;;;;;;5063086;28;20191;-83
2021/09/20 04:59:30;;;;;;;120.63;108.57;;;13.50;99.90;;;;;;5064391;28;20161;-83
2021/09/20 05:01:56;;;;;;;120.53;107.83;;;13.40;99.90;;;;;;5045339;28;20196;-83
2021/09/20 05:04:22;;;;;;;107.23;95.67;;;13.30;99.90;;;;;;5062980;28;20172;-83
2021/09/20 05:06:47;;;;;;;126.27;114.00;;;13.40;99.90;;;;;;5045857;28;20193;-83
2021/09/20 05:09:13;;;;;;;106.00;94.00;;;13.40;99.90;;;;;;5045812;28;20650;-83
2021/09/20 05:11:39;;;;;;;116.03;104.23;;;13.50;99.90;;;;;;5045800;28;20255;-83
2021/09/20 05:14:05;;;;;;;117.67;105.77;;;13.60;99.90;;;;;;5045880;28;20227;-83
2021/09/20 05:16:31;;;;;;;141.83;129.10;;;13.60;99.90;;;;;;5063047;28;20211;-83
2021/09/20 05:18:57;;;;;;;147.03;134.10;;;13.60;99.90;;;;;;5063357;28;20423;-83
2021/09/20 05:21:23;;;;;;;152.30;139.23;;;13.60;99.90;;;;;;5062184;28;20406;-83
2021/09/20 05:23:50;;;;;;;141.83;129.23;;;13.50;99.90;;;;;;5044706;28;20173;-83
2021/09/20 05:26:16;;;;;;;122.77;110.70;;;13.40;99.90;;;;;;5063102;28;20184;-83
2021/09/20 05:28:42;;;;;;;118.03;106.13;;;13.40;99.90;;;;;;5063174;28;20482;-84
2021/09/20 05:31:07;;;;;;;141.87;129.03;;;13.50;99.90;;;;;;5063999;28;20431;-84
2021/09/20 05:33:34;;;;;;;113.30;101.00;;;13.50;99.90;;;;;;5045466;28;20215;-84
2021/09/20 05:36:05;;;;;;;103.33;92.10;;;13.40;99.90;;;;;;5064587;28;20172;-84
2021/09/20 05:38:31;;;;;;;115.63;103.93;;;13.60;99.90;;;;;;5045458;28;20410;-84
2021/09/20 05:40:56;;;;;;;134.93;122.23;;;13.60;99.90;;;;;;5064318;28;20388;-84
2021/09/20 05:43:22;;;;;;;120.13;108.23;;;13.50;99.90;;;;;;5064740;28;20399;-84
2021/09/20 05:45:48;;;;;;;137.53;124.80;;;13.50;99.90;;;;;;5064589;28;20176;-83
2021/09/20 05:48:15;;;;;;;128.70;116.27;;;13.30;99.90;;;;;;5064416;28;20189;-84
2021/09/20 05:50:42;;;;;;;105.50;94.00;;;13.40;99.90;;;;;;5064592;28;20402;-83
2021/09/20 05:53:08;;;;;;;104.37;92.73;;;13.50;99.90;;;;;;5042729;28;20469;-83
2021/09/20 05:55:33;;;;;;;116.80;104.80;;;13.50;99.90;;;;;;5044010;28;20486;-86
2021/09/20 05:57:59;;;;;;;115.43;103.77;;;13.50;99.90;;;;;;5043005;28;20430;-86
2021/09/20 06:00:25;;;;;;;117.33;105.33;;;13.50;99.90;;;;;;5042800;28;20165;-86
2021/09/20 06:02:51;;;;;;;130.87;118.40;;;13.50;99.90;;;;;;5059842;28;20207;-86
2021/09/20 06:05:16;;;;;;;122.50;110.30;;;13.50;99.90;;;;;;5060248;28;20399;-86
2021/09/20 06:07:43;;;;;;;108.37;96.83;;;13.40;99.90;;;;;;5059687;28;20180;-86
2021/09/20 06:10:10;;;;;;;119.13;106.93;;;13.40;99.90;;;;;;5042742;28;20227;-86
2021/09/20 06:12:35;;;;;;;111.37;96.20;;;13.40;99.90;;;;;;5042137;28;20450;-86
2021/09/20 06:15:02;;;;;;;106.93;89.77;;;13.40;99.90;;;;;;5041908;28;20818;-86
2021/09/20 06:17:27;;;;;;;126.13;113.93;;;13.60;99.90;;;;;;5038094;28;20697;-87
2021/09/20 06:19:53;;;;;;;147.17;134.27;;;13.70;99.90;;;;;;5053890;28;20403;-87
2021/09/20 06:22:19;;;;;;;134.83;122.23;;;13.80;99.90;;;;;;5036037;28;20168;-87
2021/09/20 06:24:44;;;;;;;132.60;120.20;;;13.70;99.90;;;;;;5036049;28;20222;-87
2021/09/20 06:27:11;;;;;;;123.60;111.23;;;13.60;99.90;;;;;;5053824;28;20246;-87
2021/09/20 06:29:37;;;;;;;121.97;109.67;;;13.50;99.90;;;;;;5037648;28;20176;-86
2021/09/20 06:32:02;;;;;;;144.53;131.73;;;13.60;99.90;;;;;;5059693;28;20449;-85
2021/09/20 06:34:28;;;;;;;117.80;105.90;;;13.50;99.90;;;;;;5059931;28;20188;-85
2021/09/20 06:39:25;;;;;;;141.33;128.53;;;13.60;99.90;;;;;;5037169;28;20201;-85
2021/09/20 06:41:51;;;;;;;124.10;111.67;;;13.50;99.90;;;;;;5039063;28;20911;-84
2021/09/20 06:44:17;;;;;;;126.07;113.87;;;13.60;99.90;;;;;;5020238;28;20397;-85
2021/09/20 06:46:44;;;;;;;137.67;124.93;;;13.60;99.90;;;;;;5044459;28;20472;-85
2021/09/20 06:49:09;;;;;;;159.00;145.43;;;13.70;99.90;;;;;;5059840;28;20169;-85
2021/09/20 06:51:35;;;;;;;122.23;109.87;;;13.70;99.90;;;;;;5058783;28;20912;-84
2021/09/20 06:54:02;;;;;;;141.43;128.43;;;13.80;99.90;;;;;;5058769;28;20204;-84
2021/09/20 06:56:27;;;;;;;112.50;100.90;;;13.80;99.90;;;;;;5058438;28;20433;-85
2021/09/20 06:58:53;;;;;;;145.53;132.57;;;13.90;99.90;;;;;;5058954;28;20398;-85
2021/09/20 07:01:19;;;;;;;163.63;149.90;;;13.90;99.90;;;;;;5058780;28;20169;-84
2021/09/20 07:03:44;;;;;;;143.00;129.90;;;13.90;99.90;;;;;;5059121;28;20176;-85
2021/09/20 07:06:10;;;;;;;149.03;136.20;;;14.00;99.90;;;;;;5058911;28;20171;-84
2021/09/20 07:08:36;;;;;;;156.60;143.30;;;14.00;99.90;;;;;;5041420;28;20168;-84
2021/09/20 07:11:02;;;;;;;139.60;127.00;;;14.00;99.90;;;;;;5059084;28;20222;-85
2021/09/20 07:13:27;;;;;;;167.20;153.57;;;14.20;99.90;;;;;;5040480;28;20200;-84
2021/09/20 07:15:53;;;;;;;148.40;135.57;;;14.20;99.90;;;;;;5041272;28;20587;-85
2021/09/20 07:18:19;;;;;;;176.73;162.83;;;14.20;99.90;;;;;;5058866;28;20422;-85
2021/09/20 07:20:46;;;;;;;181.13;167.43;;;14.40;99.90;;;;;;5058805;28;20195;-85
2021/09/20 07:23:12;;;;;;;189.93;175.53;;;14.50;99.90;;;;;;5058655;28;20806;-84
2021/09/20 07:25:39;;;;;;;186.43;172.40;;;14.40;99.90;;;;;;5058995;28;20406;-84
2021/09/20 07:28:05;;;;;;;188.03;173.90;;;14.50;99.90;;;;;;5058134;28;20486;-84
2021/09/20 07:30:32;;;;;;;192.80;178.27;;;14.70;99.90;;;;;;5058309;28;20407;-85
2021/09/20 07:32:58;;;;;;;170.50;156.70;;;14.70;99.90;;;;;;5040672;28;20501;-84
2021/09/20 07:35:24;;;;;;;155.13;141.97;;;14.50;99.90;;;;;;5058687;28;20399;-84
2021/09/20 07:37:54;;;;;;;195.40;180.40;;;14.50;99.90;;;;;;5058516;28;20438;-85
2021/09/20 07:40:22;;;;;;;184.10;169.73;;;14.50;99.90;;;;;;5059018;28;20157;-85
2021/09/20 07:42:48;;;;;;;154.77;141.57;;;14.60;99.90;;;;;;5059542;28;20429;-85
2021/09/20 07:45:14;;;;;;;122.13;110.10;;;14.60;99.90;;;;;;5058201;28;20418;-84
2021/09/20 07:47:40;;;;;;;113.43;101.50;;;14.70;99.90;;;;;;5057775;28;20942;-85
2021/09/20 07:50:08;;;;;;;101.37;85.63;;;14.60;99.90;;;;;;5057939;28;20407;-84
2021/09/20 07:52:34;;;;;;;89.67;59.50;;;14.70;99.90;;;;;;5057834;28;20950;-84
2021/09/20 07:54:59;;;;;;;96.67;79.70;;;14.70;99.90;;;;;;5057831;28;20422;-84
2021/09/20 07:57:26;;;;;;;87.27;52.63;;;14.70;99.90;;;;;;5040152;28;20427;-84
2021/09/20 07:59:52;;;;;;;92.03;64.00;;;14.80;99.90;;;;;;5043865;28;20179;-84
2021/09/20 08:02:18;;;;;;;89.20;57.63;;;14.90;99.90;;;;;;5060984;28;20407;-84
2021/09/20 08:04:44;;;;;;;89.50;61.90;;;15.00;99.90;;;;;;5043273;28;20636;-84
2021/09/20 08:07:10;;;;;;;86.93;57.27;;;14.90;99.90;;;;;;5042398;28;20432;-84
2021/09/20 08:09:35;;;;;;;88.47;57.50;;;14.90;99.90;;;;;;5043667;28;20743;-83
2021/09/20 08:12:01;;;;;;;90.87;62.67;;;14.90;99.90;;;;;;5059496;28;20644;-84
2021/09/20 08:14:27;;;;;;;88.60;59.80;;;14.90;99.90;;;;;;5061371;28;20196;-84
2021/09/20 08:16:52;;;;;;;90.00;59.20;;;15.00;99.90;;;;;;5043076;28;20200;-84
2021/09/20 08:19:18;;;;;;;89.17;58.07;;;15.00;99.90;;;;;;5061424;28;20179;-84
2021/09/20 08:21:44;;;;;;;87.73;56.87;;;15.00;99.90;;;;;;5061059;28;20161;-85
2021/09/20 08:24:09;;;;;;;86.33;52.70;;;15.00;99.90;;;;;;5061336;28;20177;-84
2021/09/20 08:26:35;;;;;;;88.17;55.60;;;14.90;99.10;;;;;;5060915;28;20184;-85
2021/09/20 08:29:01;;;;;;;86.23;54.07;;;14.90;99.90;;;;;;5060929;28;20218;-85
2021/09/20 08:31:27;;;;;;;85.40;52.60;;;15.00;99.90;;;;;;5062084;28;20411;-84
2021/09/20 08:33:52;;;;;;;83.83;48.30;;;15.10;99.90;;;;;;5060895;28;20193;-84
2021/09/20 08:36:18;;;;;;;87.37;54.80;;;15.00;97.70;;;;;;5061323;28;20164;-84
2021/09/20 08:38:45;;;;;;;86.77;55.97;;;14.90;99.30;;;;;;5042249;28;20185;-85
2021/09/20 08:41:14;;;;;;;84.07;49.40;;;14.80;99.00;;;;;;5059397;28;20172;-84
2021/09/20 08:43:39;;;;;;;82.80;44.93;;;14.80;98.50;;;;;;5058471;28;20407;-83
2021/09/20 08:46:06;;;;;;;88.30;56.90;;;14.80;99.90;;;;;;5058675;28;20472;-83
2021/09/20 08:48:38;;;;;;;86.37;51.87;;;14.90;99.80;;;;;;5058408;28;20243;-83
2021/09/20 08:51:05;;;;;;;89.67;54.43;;;14.90;99.20;;;;;;5041924;28;20431;-84
2021/09/20 08:53:30;;;;;;;87.77;52.47;;;14.90;98.00;;;;;;5059022;28;20957;-84
2021/09/20 08:55:56;;;;;;;86.80;51.47;;;15.00;99.90;;;;;;5059039;28;20414;-84
2021/09/20 08:58:22;;;;;;;85.50;51.03;;;15.10;97.90;;;;;;5040194;28;20419;-84
2021/09/20 09:00:48;;;;;;;83.40;47.63;;;15.10;97.70;;;;;;5058363;28;20168;-84
2021/09/20 09:03:20;;;;;;;86.00;49.77;;;15.20;97.70;;;;;;5058811;28;20192;-83
2021/09/20 09:05:47;;;;;;;78.30;34.20;;;15.20;96.90;;;;;;5040506;28;20929;-83
2021/09/20 09:08:17;;;;;;;79.90;36.10;;;15.30;95.50;;;;;;5058068;28;20513;-83
2021/09/20 09:10:44;;;;;;;88.37;39.73;;;15.20;95.10;;;;;;5039622;28;20918;-83
2021/09/20 09:13:11;;;;;;;85.13;46.57;;;15.30;96.20;;;;;;5057859;28;20449;-83
2021/09/20 09:15:37;;;;;;;83.60;49.20;;;15.30;96.60;;;;;;5058000;28;20411;-83
2021/09/20 09:18:05;;;;;;;84.90;47.03;;;15.40;96.70;;;;;;5040922;28;20525;-83
2021/09/20 09:20:34;;;;;;;80.07;36.93;;;15.40;95.00;;;;;;5040725;28;20411;-84
2021/09/20 09:23:01;;;;;;;82.00;41.37;;;15.50;94.10;;;;;;5041815;28;20963;-85
2021/09/20 09:25:37;;;;;;;80.23;37.20;;;15.60;95.10;;;;;;5060626;28;20403;-84
2021/09/20 09:28:24;;;;;;;80.57;41.63;;;15.70;93.70;;;;;;5041989;28;20878;-86
2021/09/20 09:30:55;;;;;;;111.67;99.90;;;15.80;93.00;;;;;;5026280;28;20414;-85
2021/09/20 09:33:25;;;;;;;95.17;81.97;;;15.80;91.10;;;;;;5060626;28;20451;-85
2021/09/20 09:35:54;;;;;;;91.73;73.97;;;15.90;92.60;;;;;;5060539;28;20412;-84
2021/09/20 09:38:20;;;;;;;136.13;124.10;;;15.90;91.60;;;;;;5042140;28;20472;-85
2021/09/20 09:40:59;;;;;;;142.87;130.60;;;16.10;92.60;;;;;;5041149;28;20426;-84
2021/09/20 09:43:28;;;;;;;128.40;116.40;;;16.20;90.20;;;;;;5057668;28;20411;-83
2021/09/20 09:45:56;;;;;;;135.70;123.53;;;16.10;86.10;;;;;;5057605;28;20403;-84
2021/09/20 09:48:25;;;;;;;138.23;125.97;;;16.10;89.90;;;;;;5039857;28;20443;-84
2021/09/20 09:50:53;;;;;;;151.00;138.00;;;16.20;88.00;;;;;;5039742;28;20439;-85
2021/09/20 09:53:37;;;;;;;92.37;69.40;;;16.30;87.80;;;;;;5059184;28;20466;-85
2021/09/20 09:56:09;;;;;;;123.70;111.93;;;16.30;83.50;;;;;;5059395;28;20391;-85
2021/09/20 09:58:35;;;;;;;121.10;109.40;;;16.50;88.30;;;;;;5058750;28;20383;-85
2021/09/20 10:01:18;;;;;;;90.97;72.03;;;16.70;89.00;;;;;;5058961;28;20409;-85
2021/09/20 10:04:12;;;;;;;90.30;67.37;;;16.80;76.30;;;;;;5058139;28;20204;-84
2021/09/20 10:06:46;;;;;;;90.20;62.43;;;16.80;80.60;;;;;;5058490;28;20428;-84
2021/09/20 10:09:17;;;;;;;95.57;82.13;;;17.00;83.60;;;;;;5040764;28;20402;-84
2021/09/20 10:11:47;;;;;;;95.90;85.33;;;17.20;79.40;;;;;;5059367;28;20497;-84
2021/09/20 10:14:13;;;;;;;89.50;67.17;;;17.30;76.10;;;;;;5058417;28;20457;-84
2021/09/20 10:16:40;;;;;;;89.50;67.53;;;17.20;71.80;;;;;;5040576;28;20905;-84
2021/09/20 10:19:06;;;;;;;98.73;88.13;;;17.30;73.30;;;;;;5040737;28;20406;-84
2021/09/20 10:21:32;;;;;;;90.93;70.53;;;17.40;79.40;;;;;;5038756;28;20412;-85
2021/09/20 10:23:59;;;;;;;119.63;108.07;;;17.50;75.70;;;;;;5058955;28;20460;-85
2021/09/20 10:26:26;;;;;;;132.47;120.40;;;17.60;70.10;;;;;;5058326;28;20431;-84
2021/09/20 10:28:56;;;;;;;233.63;218.17;;;17.60;72.50;;;;;;5057396;28;20462;-82
2021/09/20 10:31:24;;;;;;;199.47;184.77;;;17.70;69.90;;;;;;5057832;28;20921;-84
2021/09/20 10:34:22;;;;;;;227.03;211.07;;;17.70;59.50;;;;;;5059333;28;20496;-84
2021/09/20 10:36:54;;;;;;;252.57;236.27;;;17.60;65.30;;;;;;5057123;28;20427;-84
2021/09/20 10:39:43;;;;;;;247.17;230.77;;;17.70;68.50;;;;;;5039699;28;20936;-84
2021/09/20 10:42:11;;;;;;;260.10;243.60;;;17.80;70.50;;;;;;5043419;28;20939;-82
2021/09/20 10:44:41;;;;;;;242.50;226.80;;;17.80;65.60;;;;;;5057263;28;20743;-84
2021/09/20 10:47:15;;;;;;;176.63;162.07;;;17.80;64.80;;;;;;5039952;28;20466;-85
2021/09/20 10:49:52;;;;;;;130.00;117.57;;;18.10;63.30;;;;;;5040350;28;20541;-85
2021/09/20 10:52:18;;;;;;;214.47;199.07;;;17.90;58.20;;;;;;5040542;28;20410;-84
2021/09/20 10:55:06;;;;;;;191.00;175.97;;;17.90;62.20;;;;;;5040511;28;20414;-84
2021/09/20 10:57:32;;;;;;;203.27;187.83;;;17.80;66.60;;;;;;5059183;28;20419;-85
2021/09/20 11:00:23;;;;;;;161.23;147.77;;;17.90;67.00;;;;;;5039848;28;20790;-85
2021/09/20 11:02:50;;;;;;;198.77;183.97;;;18.00;60.60;;;;;;5041042;28;20467;-85
2021/09/20 11:05:24;;;;;;;187.33;172.83;;;18.20;65.30;;;;;;5058062;28;20399;-85
2021/09/20 11:07:51;;;;;;;221.43;206.00;;;18.30;63.90;;;;;;5057255;28;20505;-85
2021/09/20 11:10:27;;;;;;;137.50;124.77;;;18.60;62.50;;;;;;5039792;28;20403;-85
2021/09/20 11:13:02;;;;;;;128.53;116.73;;;19.00;53.90;;;;;;5057281;28;20443;-85
2021/09/20 11:15:43;;;;;;;141.53;129.03;;;19.20;49.60;;;;;;5039683;28;20487;-85
2021/09/20 11:18:09;;;;;;;108.70;97.53;;;19.80;46.30;;;;;;5039121;28;20427;-85
2021/09/20 11:20:39;;;;;;;211.03;195.57;;;20.10;42.00;;;;;;5058353;28;20419;-85
2021/09/20 11:23:15;;;;;;;160.40;146.67;;;20.20;31.70;;;;;;5058375;28;20411;-85
2021/09/20 11:25:41;;;;;;;213.00;197.97;;;19.80;18.90;;;;;;5058624;28;20437;-85
2021/09/20 11:28:12;;;;;;;245.23;228.90;;;19.30;23.60;;;;;;5058225;28;20426;-85
2021/09/20 11:30:39;;;;;;;138.60;126.40;;;19.30;24.10;;;;;;5058748;28;20388;-85
2021/09/20 11:33:10;;;;;;;175.27;161.27;;;19.10;29.00;;;;;;5059907;28;20454;-86
2021/09/20 11:35:36;;;;;;;174.30;160.43;;;19.40;24.50;;;;;;5061999;28;20396;-85
2021/09/20 11:38:12;;;;;;;205.67;191.07;;;19.30;27.60;;;;;;5044843;28;20443;-85
2021/09/20 11:40:38;;;;;;;241.37;225.30;;;19.30;29.40;;;;;;5045193;28;20161;-85
2021/09/20 11:43:07;;;;;;;144.67;131.90;;;18.80;26.50;;;;;;5062387;28;20902;-86
2021/09/20 11:45:37;;;;;;;103.73;93.00;;;18.80;32.90;;;;;;5062381;28;20438;-85
2021/09/20 11:48:06;;;;;;;169.80;156.03;;;18.90;37.10;;;;;;5061812;28;20431;-85
2021/09/20 11:50:33;;;;;;;95.87;83.13;;;18.70;32.60;;;;;;5061661;28;20407;-85
2021/09/20 11:53:05;;;;;;;163.13;149.53;;;18.80;40.20;;;;;;5043547;28;20969;-85
2021/09/20 11:55:36;;;;;;;115.17;103.77;;;18.90;44.10;;;;;;5043763;28;20740;-85
2021/09/20 11:58:04;;;;;;;207.00;192.20;;;18.80;42.10;;;;;;5061565;28;20832;-85
2021/09/20 12:00:33;;;;;;;179.50;165.90;;;18.50;31.00;;;;;;5061887;28;20490;-85
2021/09/20 12:03:01;;;;;;;198.20;184.07;;;18.50;37.10;;;;;;5061496;28;20418;-86
2021/09/20 12:05:29;;;;;;;115.93;104.47;;;18.70;34.70;;;;;;5062032;28;20411;-86
2021/09/20 12:08:00;;;;;;;146.97;134.40;;;18.30;40.20;;;;;;5061700;28;20439;-86
2021/09/20 12:10:44;;;;;;;93.13;78.47;;;18.30;43.80;;;;;;5044848;28;20403;-86
2021/09/20 12:13:12;;;;;;;141.93;129.10;;;18.40;39.00;;;;;;5062319;28;20430;-85
2021/09/20 12:15:41;;;;;;;88.10;66.23;;;18.50;41.30;;;;;;5062891;28;20408;-84
2021/09/20 12:18:09;;;;;;;93.53;77.93;;;18.50;39.30;;;;;;5045064;28;20434;-85
2021/09/20 12:20:44;;;;;;;155.73;142.30;;;18.50;41.30;;;;;;5042618;28;20431;-85
2021/09/20 12:23:15;;;;;;;96.97;81.90;;;18.60;46.40;;;;;;5061891;28;20386;-85
2021/09/20 12:25:45;;;;;;;90.20;72.00;;;18.70;43.30;;;;;;5045118;28;20419;-85
2021/09/20 12:28:30;;;;;;;89.57;66.67;;;18.50;38.10;;;;;;5061132;28;20431;-85
2021/09/20 12:31:04;;;;;;;122.10;110.13;;;18.40;39.80;;;;;;5043970;28;20549;-85
2021/09/20 12:33:51;;;;;;;156.33;143.50;;;18.40;43.70;;;;;;5041390;28;20447;-85
2021/09/20 12:36:29;;;;;;;95.37;82.20;;;18.50;49.30;;;;;;5061183;28;20395;-85
2021/09/20 12:39:19;;;;;;;90.90;71.20;;;18.70;44.40;;;;;;5131400;22;20478;-85